createdAt,value
2023-05-22T00:00:23.517Z,9.89
2023-05-22T00:02:52.711Z,9.88
2023-05-22T00:05:21.649Z,9.89
2023-05-22T00:07:49.991Z,9.89
2023-05-22T00:10:18.541Z,9.75
2023-05-22T00:12:48.060Z,9.90
2023-05-22T00:15:18.073Z,9.90
2023-05-22T00:17:47.883Z,9.90
2023-05-22T00:20:16.606Z,9.90
2023-05-22T00:22:45.048Z,9.88
2023-05-22T00:25:13.433Z,9.87
2023-05-22T00:27:41.701Z,9.91
2023-05-22T00:30:11.112Z,9.92
2023-05-22T00:32:41.375Z,9.91
2023-05-22T00:35:11.657Z,9.93
2023-05-22T00:37:39.955Z,9.96
2023-05-22T05:21:16.807Z,12.72
2023-05-22T05:23:49.073Z,12.75
2023-05-22T05:26:19.794Z,12.84
2023-05-22T05:28:48.107Z,12.94
2023-05-22T05:31:17.925Z,13.19
2023-05-22T05:34:06.879Z,13.35
2023-05-22T05:36:56.340Z,13.44
2023-05-22T05:39:26.997Z,13.51
2023-05-22T05:41:58.094Z,13.53
2023-05-22T05:44:27.021Z,13.66
2023-05-22T05:46:58.404Z,13.79
2023-05-22T05:49:28.391Z,13.85
2023-05-22T05:51:58.532Z,14.01
2023-05-22T05:54:27.565Z,14.15
2023-05-22T05:57:01.308Z,14.26
2023-05-22T05:59:31.988Z,14.52
2023-05-22T06:02:39.004Z,14.72
2023-05-22T06:05:13.744Z,14.85
2023-05-22T06:07:44.713Z,14.94
2023-05-22T06:10:14.258Z,15.08
2023-05-22T06:12:52.875Z,15.29
2023-05-22T06:15:21.447Z,15.42
2023-05-22T06:17:54.027Z,15.54
2023-05-22T06:20:26.483Z,15.63
2023-05-22T06:22:56.587Z,15.78
2023-05-22T06:25:26.072Z,15.95
2023-05-22T06:27:54.932Z,16.05
2023-05-22T06:30:38.860Z,16.07
2023-05-22T06:33:11.222Z,16.13
2023-05-22T06:35:39.834Z,16.20
2023-05-22T06:38:10.824Z,16.44
2023-05-22T06:40:40.979Z,16.89
2023-05-22T06:43:17.972Z,16.99
2023-05-22T06:45:51.788Z,17.10
2023-05-22T06:48:38.627Z,17.18
2023-05-22T06:51:25.559Z,17.26
2023-05-22T06:54:08.148Z,17.24
2023-05-22T06:56:40.987Z,17.11
2023-05-22T06:59:16.634Z,17.00
2023-05-22T07:02:00.229Z,17.18
2023-05-22T07:04:48.827Z,17.38
2023-05-22T07:07:22.864Z,17.59
2023-05-22T07:09:52.757Z,17.89
2023-05-22T07:12:25.995Z,18.06
2023-05-22T07:14:57.049Z,18.14
2023-05-22T07:17:29.414Z,18.04
2023-05-22T07:20:01.982Z,18.04
2023-05-22T07:22:33.780Z,18.10
2023-05-22T07:25:04.207Z,18.29
2023-05-22T07:27:34.902Z,18.47
2023-05-22T07:30:06.946Z,18.75
2023-05-22T07:32:41.198Z,18.84
2023-05-22T07:35:13.750Z,19.11
2023-05-22T07:37:42.323Z,19.19
2023-05-22T07:40:12.966Z,19.13
2023-05-22T07:42:41.521Z,19.21
2023-05-22T07:45:12.910Z,19.32
2023-05-22T07:47:41.517Z,19.82
2023-05-22T07:50:10.781Z,20.02
2023-05-22T07:52:43.360Z,19.95
2023-05-22T07:55:14.306Z,19.61
2023-05-22T07:57:43.821Z,19.51
2023-05-22T08:00:27.867Z,19.88
2023-05-22T08:02:56.748Z,20.14
2023-05-22T08:05:25.231Z,20.13
2023-05-22T08:07:53.710Z,20.25
2023-05-22T08:10:23.887Z,20.40
2023-05-22T08:12:52.450Z,20.26
2023-05-22T08:15:21.101Z,19.90
2023-05-22T08:17:50.001Z,19.78
2023-05-22T08:20:18.511Z,19.96
2023-05-22T08:22:47.434Z,19.85
2023-05-22T08:25:16.197Z,19.89
2023-05-22T08:27:46.369Z,19.97
2023-05-22T08:30:14.864Z,20.25
2023-05-22T08:32:43.366Z,20.52
2023-05-22T08:35:12.010Z,20.67
2023-05-22T08:37:40.297Z,20.59
2023-05-22T08:40:12.663Z,20.45
2023-05-22T08:42:41.424Z,20.53
2023-05-22T08:45:17.217Z,20.53
2023-05-22T08:47:53.168Z,20.54
2023-05-22T08:50:21.928Z,20.72
2023-05-22T08:52:53.089Z,21.17
2023-05-22T08:55:22.667Z,21.47
2023-05-22T08:57:56.253Z,21.55
2023-05-22T09:00:26.427Z,21.56
2023-05-22T09:02:57.300Z,21.33
2023-05-22T09:05:26.877Z,21.23
2023-05-22T09:07:58.421Z,21.15
2023-05-22T09:10:32.022Z,21.34
2023-05-22T09:13:04.965Z,21.50
2023-05-22T09:15:41.932Z,21.44
2023-05-22T09:18:10.356Z,21.60
2023-05-22T09:20:41.751Z,21.88
2023-05-22T09:23:15.669Z,21.86
2023-05-22T09:25:44.764Z,21.66
2023-05-22T09:28:14.532Z,21.48
2023-05-22T09:30:44.569Z,21.40
2023-05-22T09:33:17.055Z,21.21
2023-05-22T09:35:48.580Z,21.28
2023-05-22T09:38:18.186Z,21.13
2023-05-22T09:40:56.886Z,20.99
2023-05-22T09:43:27.539Z,20.80
2023-05-22T09:46:04.315Z,20.85
2023-05-22T09:48:36.809Z,20.85
2023-05-22T09:51:10.735Z,20.86
2023-05-22T09:53:44.605Z,20.82
2023-05-22T09:56:23.972Z,20.66
2023-05-22T09:59:03.984Z,20.61
2023-05-22T10:01:35.753Z,20.44
2023-05-22T10:04:06.008Z,20.13
2023-05-22T10:06:38.697Z,20.25
2023-05-22T10:09:16.902Z,20.25
2023-05-22T10:11:48.769Z,20.24
2023-05-22T10:14:18.297Z,20.27
2023-05-22T10:16:49.810Z,20.29
2023-05-22T10:19:19.046Z,20.29
2023-05-22T10:21:49.243Z,20.57
2023-05-22T10:24:18.368Z,20.77
2023-05-22T10:26:48.258Z,21.03
2023-05-22T10:29:23.639Z,21.14
2023-05-22T10:32:01.574Z,21.04
2023-05-22T10:34:52.355Z,20.84
2023-05-22T10:37:38.759Z,20.69
2023-05-22T10:40:13.212Z,20.59
2023-05-22T10:42:42.166Z,20.62
2023-05-22T10:45:13.467Z,20.54
2023-05-22T10:47:43.791Z,20.59
2023-05-22T10:50:13.527Z,20.49
2023-05-22T10:52:41.848Z,20.15
2023-05-22T10:55:11.867Z,19.78
2023-05-22T10:57:40.811Z,19.47
2023-05-22T11:00:13.965Z,19.37
2023-05-22T11:02:49.930Z,19.18
2023-05-22T11:05:39.356Z,19.56
2023-05-22T11:08:37.234Z,19.78
2023-05-22T11:11:14.036Z,20.10
2023-05-22T11:13:43.792Z,20.23
2023-05-22T11:16:12.504Z,20.24
2023-05-22T11:18:43.648Z,20.17
2023-05-22T11:21:13.905Z,20.17
2023-05-22T11:23:43.372Z,20.07
2023-05-22T11:26:26.356Z,19.98
2023-05-22T11:29:03.302Z,19.90
2023-05-22T11:31:32.065Z,19.99
2023-05-22T11:34:02.285Z,20.18
2023-05-22T11:36:31.851Z,20.07
2023-05-22T11:39:01.399Z,19.90
2023-05-22T11:41:37.012Z,19.71
2023-05-22T11:44:12.277Z,19.79
2023-05-22T11:46:41.694Z,19.73
2023-05-22T11:49:13.291Z,19.66
2023-05-22T11:51:42.021Z,19.97
2023-05-22T11:54:10.485Z,19.99
2023-05-22T11:56:41.465Z,20.07
2023-05-22T11:59:12.780Z,20.17
2023-05-22T12:01:43.288Z,20.41
2023-05-22T12:04:14.850Z,20.52
2023-05-22T12:06:43.707Z,20.77
2023-05-22T12:09:14.790Z,20.79
2023-05-22T12:11:47.420Z,20.68
2023-05-22T12:14:16.264Z,20.54
2023-05-22T12:16:45.804Z,20.45
2023-05-22T12:19:16.076Z,20.54
2023-05-22T12:21:46.380Z,20.60
2023-05-22T12:24:16.075Z,21.05
2023-05-22T12:26:51.014Z,21.23
2023-05-22T12:29:19.722Z,21.18
2023-05-22T12:31:50.366Z,20.98
2023-05-22T12:34:24.106Z,20.71
2023-05-22T12:36:54.420Z,20.73
2023-05-22T12:39:22.922Z,20.56
2023-05-22T12:41:51.848Z,20.43
2023-05-22T12:44:20.240Z,20.28
2023-05-22T12:46:48.885Z,20.16
2023-05-22T12:49:20.795Z,19.86
2023-05-22T12:51:50.784Z,19.64
2023-05-22T12:54:19.306Z,19.32
2023-05-22T12:56:47.610Z,19.12
2023-05-22T12:59:16.061Z,18.94
2023-05-22T13:01:46.673Z,18.45
2023-05-22T13:04:14.993Z,18.21
2023-05-22T13:06:43.292Z,17.84
2023-05-22T13:09:17.001Z,17.50
2023-05-22T13:11:50.392Z,17.15
2023-05-22T13:14:19.112Z,16.03
2023-05-22T13:16:47.619Z,15.36
2023-05-22T13:19:16.573Z,14.69
2023-05-22T13:21:45.378Z,13.97
2023-05-22T13:24:19.350Z,13.85
2023-05-22T13:26:49.137Z,13.73
2023-05-22T13:29:17.739Z,13.56
2023-05-22T13:31:49.282Z,13.49
2023-05-22T13:34:18.320Z,13.45
2023-05-22T13:36:46.988Z,13.41
2023-05-22T13:39:15.404Z,13.26
2023-05-22T13:41:45.929Z,13.43
2023-05-22T13:44:14.376Z,13.45
2023-05-22T13:46:42.915Z,13.51
2023-05-22T13:49:11.222Z,13.55
2023-05-22T13:51:42.150Z,13.63
2023-05-22T13:54:13.127Z,13.66
2023-05-22T13:56:41.756Z,13.71
2023-05-22T13:59:14.295Z,13.83
2023-05-22T14:01:43.204Z,13.87
2023-05-22T14:04:11.584Z,14.12
2023-05-22T14:06:39.960Z,14.19
2023-05-22T14:09:09.763Z,14.17
2023-05-22T14:11:41.223Z,14.18
2023-05-22T14:14:09.723Z,14.32
2023-05-22T14:16:41.520Z,14.25
2023-05-22T14:19:10.002Z,14.38
2023-05-22T14:21:38.326Z,14.43
2023-05-22T14:24:07.371Z,14.48
2023-05-22T14:26:35.931Z,14.54
2023-05-22T14:29:04.697Z,14.60
2023-05-22T14:31:33.468Z,14.64
2023-05-22T14:34:03.347Z,14.68
2023-05-22T14:36:34.684Z,14.72
2023-05-22T14:39:03.090Z,14.82
2023-05-22T14:41:31.668Z,14.76
2023-05-22T14:44:06.585Z,14.63
2023-05-22T14:46:41.024Z,13.93
2023-05-22T14:49:12.773Z,14.72
2023-05-22T14:51:47.748Z,14.59
2023-05-22T14:54:19.012Z,14.36
2023-05-22T14:56:47.995Z,14.39
2023-05-22T14:59:16.374Z,14.43
2023-05-22T15:01:49.992Z,14.54
2023-05-22T15:04:22.758Z,14.67
2023-05-22T15:06:51.329Z,14.86
2023-05-22T15:09:19.892Z,14.98
2023-05-22T15:11:49.406Z,15.04
2023-05-22T15:14:18.331Z,15.12
2023-05-22T15:19:16.629Z,15.25
2023-05-22T15:21:48.190Z,15.36
2023-05-22T15:24:19.415Z,15.32
2023-05-22T15:26:48.720Z,15.38
2023-05-22T15:29:18.541Z,15.42
2023-05-22T15:31:50.180Z,15.56
2023-05-22T15:34:19.368Z,15.54
2023-05-22T15:36:49.390Z,15.73
2023-05-22T15:39:17.831Z,15.78
2023-05-22T15:41:54.615Z,15.87
2023-05-22T15:44:31.190Z,15.81
2023-05-22T15:46:59.553Z,15.93
2023-05-22T15:49:31.083Z,15.95
2023-05-22T15:52:01.382Z,16.01
2023-05-22T15:54:31.095Z,16.03
2023-05-22T15:57:01.375Z,15.98
2023-05-22T15:59:32.693Z,15.99
2023-05-22T16:02:01.299Z,16.10
2023-05-22T16:04:32.762Z,16.13
2023-05-22T16:07:03.194Z,16.16
2023-05-22T16:09:32.786Z,16.20
2023-05-22T16:12:01.528Z,16.27
2023-05-22T16:14:30.029Z,16.24
2023-05-22T16:17:00.853Z,16.28
2023-05-22T16:19:30.020Z,16.35
2023-05-22T16:21:58.822Z,16.39
2023-05-22T16:24:28.756Z,16.34
2023-05-22T16:26:57.839Z,16.31
2023-05-22T16:29:26.318Z,16.32
2023-05-22T16:31:54.772Z,16.30
2023-05-22T16:34:25.883Z,16.25
2023-05-22T16:36:55.388Z,16.17
2023-05-22T16:39:28.654Z,16.08
2023-05-22T16:41:56.994Z,16.01
2023-05-22T16:44:25.333Z,15.93
2023-05-22T16:46:53.772Z,15.89
2023-05-22T16:49:22.117Z,15.92
2023-05-22T16:51:50.533Z,15.97
2023-05-22T16:54:19.109Z,15.97
2023-05-22T16:56:48.946Z,16.00
2023-05-22T16:59:17.635Z,16.00
2023-05-22T17:01:46.862Z,15.96
2023-05-22T17:04:15.970Z,15.93
2023-05-22T17:06:44.458Z,15.94
2023-05-22T17:09:12.784Z,15.93
2023-05-22T17:11:41.119Z,15.90
2023-05-22T17:14:11.331Z,15.84
2023-05-22T17:16:40.787Z,15.78
2023-05-22T17:19:09.894Z,15.77
2023-05-22T17:21:38.276Z,15.78
2023-05-22T17:24:06.910Z,15.77
2023-05-22T17:26:35.819Z,15.72
2023-05-22T17:29:04.400Z,15.68
2023-05-22T17:31:36.219Z,15.62
2023-05-22T17:34:07.447Z,15.55
2023-05-22T17:36:36.025Z,15.49
2023-05-22T17:39:04.742Z,15.52
2023-05-22T17:41:33.188Z,15.49
2023-05-22T17:44:01.939Z,15.45
2023-05-22T17:46:30.270Z,15.43
2023-05-22T17:48:59.981Z,15.39
2023-05-22T17:51:31.230Z,15.38
2023-05-22T17:53:59.717Z,15.35
2023-05-22T17:56:28.149Z,15.32
2023-05-22T17:58:56.657Z,15.29
2023-05-22T18:01:27.244Z,15.28
2023-05-22T18:03:55.813Z,15.23
2023-05-22T18:06:25.598Z,15.21
2023-05-22T18:08:53.996Z,15.22
2023-05-22T18:11:22.626Z,15.24
2023-05-22T18:13:51.429Z,15.22
2023-05-22T18:16:25.206Z,15.23
2023-05-22T18:18:53.962Z,15.08
2023-05-22T18:21:22.353Z,15.22
2023-05-22T18:23:52.788Z,15.07
2023-05-22T18:26:22.652Z,15.17
2023-05-22T18:28:54.029Z,15.07
2023-05-22T18:31:22.812Z,14.80
2023-05-22T18:33:52.478Z,14.91
2023-05-22T18:36:26.076Z,14.74
2023-05-22T18:38:57.217Z,14.75
2023-05-22T18:41:26.324Z,14.56
2023-05-22T18:43:54.733Z,14.59
2023-05-22T18:46:23.882Z,14.52
2023-05-22T18:48:52.259Z,14.45
2023-05-22T18:51:20.682Z,14.39
2023-05-22T18:53:49.223Z,14.34
2023-05-22T18:56:19.183Z,14.19
2023-05-22T18:58:47.547Z,14.24
2023-05-22T19:01:16.842Z,14.19
2023-05-22T19:03:45.375Z,14.10
2023-05-22T19:06:13.872Z,14.01
2023-05-22T19:08:42.117Z,13.99
2023-05-22T19:11:10.578Z,13.91
2023-05-22T19:13:41.273Z,13.87
2023-05-22T19:16:09.670Z,13.75
2023-05-22T19:18:38.090Z,13.49
2023-05-22T19:21:06.505Z,13.33
2023-05-22T19:23:34.992Z,13.16
2023-05-22T19:26:04.466Z,13.03
2023-05-22T19:28:33.101Z,12.96
2023-05-22T19:31:03.319Z,12.87
2023-05-22T19:33:32.147Z,12.77
2023-05-22T19:36:01.975Z,12.59
2023-05-22T19:38:31.193Z,12.61
2023-05-22T19:41:01.284Z,12.51
2023-05-22T19:43:31.432Z,12.38
2023-05-22T19:46:00.704Z,12.39
2023-05-22T19:48:33.447Z,12.11
2023-05-22T19:51:02.217Z,12.26
2023-05-22T19:53:32.670Z,12.07
2023-05-22T19:56:02.822Z,12.15
2023-05-22T19:58:32.039Z,12.17
2023-05-22T20:01:03.726Z,12.20
2023-05-22T20:03:35.870Z,12.25
2023-05-22T20:06:05.196Z,11.22
2023-05-22T20:08:41.405Z,12.21
2023-05-22T20:11:10.395Z,12.17
2023-05-22T20:13:39.576Z,12.06
2023-05-22T20:16:12.204Z,11.42
2023-05-22T20:18:44.569Z,11.77
2023-05-22T20:21:16.780Z,11.61
2023-05-22T20:23:46.699Z,11.76
2023-05-22T20:26:15.802Z,11.40
2023-05-22T20:28:45.051Z,11.64
2023-05-22T20:31:18.592Z,11.04
2023-05-22T20:33:49.437Z,10.85
2023-05-22T20:36:20.351Z,11.52
2023-05-22T20:38:49.210Z,10.78
2023-05-22T20:41:23.005Z,11.31
2023-05-22T20:43:54.527Z,11.29
2023-05-22T20:46:25.235Z,11.43
2023-05-22T20:48:56.481Z,11.44
2023-05-22T20:51:32.580Z,11.44
2023-05-22T20:54:02.067Z,11.38
2023-05-22T20:56:31.437Z,11.34
2023-05-22T20:59:02.919Z,11.44
2023-05-22T21:01:32.068Z,11.26
2023-05-22T21:04:02.869Z,11.46
2023-05-22T21:06:31.836Z,10.99
2023-05-22T21:09:01.928Z,11.45
2023-05-22T21:11:30.893Z,11.45
2023-05-22T21:13:59.518Z,11.45
2023-05-22T21:16:28.246Z,11.41
2023-05-22T21:18:56.758Z,11.36
2023-05-22T21:21:27.214Z,11.38
2023-05-22T21:23:55.995Z,11.32
2023-05-22T21:26:24.482Z,11.32
2023-05-22T21:28:53.070Z,11.33
2023-05-22T21:31:21.523Z,11.32
2023-05-22T21:33:49.876Z,11.31
2023-05-22T21:36:18.177Z,11.31
2023-05-22T21:38:48.187Z,11.26
2023-05-22T21:41:16.854Z,11.25
2023-05-22T21:43:45.783Z,11.20
2023-05-22T21:46:14.241Z,11.23
2023-05-22T21:48:42.840Z,11.23
2023-05-22T21:51:11.402Z,10.92
2023-05-22T21:53:39.833Z,11.20
2023-05-22T21:56:09.852Z,11.20
2023-05-22T21:58:38.180Z,11.00
2023-05-22T22:01:06.796Z,11.14
2023-05-22T22:03:35.245Z,11.19
2023-05-22T22:06:04.178Z,11.16
2023-05-22T22:08:32.512Z,11.12
2023-05-22T22:11:00.945Z,11.08
2023-05-22T22:13:30.719Z,11.07
2023-05-22T22:15:59.531Z,11.05
2023-05-22T22:18:27.876Z,11.03
2023-05-22T22:20:56.351Z,11.01
2023-05-22T22:23:24.651Z,11.01
2023-05-22T22:25:52.995Z,10.91
2023-05-22T22:28:21.288Z,10.95
2023-05-22T22:30:50.979Z,10.88
2023-05-22T22:33:19.822Z,10.95
2023-05-22T22:35:48.218Z,10.92
2023-05-22T22:38:16.565Z,10.94
2023-05-22T22:40:45.042Z,10.92
2023-05-22T22:43:13.364Z,10.91
2023-05-22T22:45:41.859Z,10.83
2023-05-22T22:48:11.817Z,10.74
2023-05-22T22:50:40.359Z,10.81
2023-05-22T22:53:08.775Z,10.78
2023-05-22T22:55:37.086Z,10.69
2023-05-22T22:58:05.578Z,10.63
2023-05-22T23:00:33.948Z,10.56
2023-05-22T23:03:02.402Z,10.53
2023-05-22T23:05:32.215Z,10.41
2023-05-22T23:08:02.268Z,10.39
2023-05-22T23:10:30.757Z,10.25
2023-05-22T23:12:59.498Z,10.36
2023-05-22T23:15:27.890Z,10.25
2023-05-22T23:17:56.175Z,10.26
2023-05-22T23:20:24.668Z,10.16
2023-05-22T23:22:54.352Z,9.96
2023-05-22T23:25:22.925Z,9.96
2023-05-22T23:27:52.140Z,9.97
2023-05-22T23:30:20.675Z,9.90
2023-05-22T23:32:49.084Z,9.86
2023-05-22T23:35:17.466Z,9.81
2023-05-22T23:37:45.923Z,9.76
2023-05-22T23:40:15.906Z,9.70
2023-05-22T23:42:44.190Z,9.56
2023-05-22T23:45:12.657Z,9.53
2023-05-22T23:47:41.042Z,9.48
2023-05-22T23:50:10.001Z,9.46
2023-05-22T23:52:38.356Z,9.42
2023-05-22T23:55:07.846Z,9.34
2023-05-22T23:57:37.610Z,9.36
